INS Tarangini — VVXV — position and weather

sailwx.info

Track history (hours):
 
Tides and Currents Weather Stations Pressure Air Temp Water Temp Dewpoint Dewpoint Depression Visibility Wind Speed Wind Dir Waves Ship Positions

INS Tarangini (India)

Training ship for Indian Navy.

Ship's website: http://indiannavy.nic.in/tarangani_home.htm

Last reported at 2018-Sep-30 13:14 UTC. Time now 2018-Dec-10 23:54 UTC.
Position N 32°43' E 034°36'.
Warning: this ship's position is months out of date.

; draft 4.5 m.

Type: Sailing vessel. MMSI: 419100094.

Date/timePositionNaut miles runAvg speedWind from/ knotsBaromVisibWave heightAir tempDewpointWater temp
2018-Sep-30 13:14N 32°43' E 034°36'4 5.4
2018-Sep-30 12:34N 32°42' E 034°40'2 6.2
2018-Sep-30 12:17N 32°41' E 034°42'2 6.1
2018-Sep-30 11:56N 32°40' E 034°45'3 5.7
2018-Sep-30 11:26N 32°41' E 034°47'4 7.8
2018-Sep-30 10:57N 32°45' E 034°50'4 8.0
2018-Sep-30 10:29N 32°48' E 034°52'4 8.5
2018-Sep-30 10:02N 32°51' E 034°54'0 8.7
2018-Sep-30 10:00N 32°52' E 034°54'  
2018-Sep-27 03:57N 32°52' E 034°59'3 5.6
2018-Sep-27 03:30N 32°52' E 034°56'3 5.8
2018-Sep-27 03:03N 32°52' E 034°53'0 6.6
2018-Sep-27 03:00N 32°52' E 034°53'3 6.6
2018-Sep-27 02:30N 32°53' E 034°49'  
Track history (hours):
 
Tides and Currents Weather Stations Pressure Air Temp Water Temp Dewpoint Dewpoint Depression Visibility Wind Speed Wind Dir Waves Ship Positions

INS Tarangini (India)

Training ship for Indian Navy.

Ship's website: http://indiannavy.nic.in/tarangani_home.htm

Last reported at 2018-Sep-30 13:14 UTC. Time now 2018-Dec-10 23:54 UTC.
Position N 32°43' E 034°36'.
Warning: this ship's position is months out of date.

; draft 4.5 m.

Type: Sailing vessel. MMSI: 419100094.

Date/timePositionNaut miles runAvg speedWind from/ knotsBaromVisibWave heightAir tempDewpointWater temp
2018-Sep-30 13:14N 32°43' E 034°36'4 5.4
2018-Sep-30 12:34N 32°42' E 034°40'2 6.2
2018-Sep-30 12:17N 32°41' E 034°42'2 6.1
2018-Sep-30 11:56N 32°40' E 034°45'3 5.7
2018-Sep-30 11:26N 32°41' E 034°47'4 7.8
2018-Sep-30 10:57N 32°45' E 034°50'4 8.0
2018-Sep-30 10:29N 32°48' E 034°52'4 8.5
2018-Sep-30 10:02N 32°51' E 034°54'0 8.7
2018-Sep-30 10:00N 32°52' E 034°54'  
2018-Sep-27 03:57N 32°52' E 034°59'3 5.6
2018-Sep-27 03:30N 32°52' E 034°56'3 5.8
2018-Sep-27 03:03N 32°52' E 034°53'0 6.6
2018-Sep-27 03:00N 32°52' E 034°53'3 6.6
2018-Sep-27 02:30N 32°53' E 034°49'  

Dump ship's entire track history